Time;durP1;ratioP1;P1;durP2;ratioP2;P2;SDS_P1;SDS_P2;PMS_P1;PMS_P2;Temp;Humidity;BMP_temperature;BMP_pressure;BME280_temperature;BME280_humidity;BME280_pressure;Samples;Min_cycle;Max_cycle;Signal;HPM_P1;HPM_P2
2023/08/22 00:01:49;;;;;;;;;;;17.10;67.90;;;;;;4156765;28;20429;-86
2023/08/22 00:04:10;;;;;;;;;;;17.20;69.10;;;;;;4160303;28;20003;-87
2023/08/22 00:06:30;;;;;;;;;;;17.20;68.20;;;;;;4160211;28;19936;-84
2023/08/22 00:08:51;;;;;;;;;;;17.10;67.90;;;;;;4162131;28;19917;-84
2023/08/22 00:11:11;;;;;;;;;;;17.10;68.30;;;;;;4160516;28;19917;-85
2023/08/22 00:13:32;;;;;;;;;;;17.10;68.00;;;;;;4155475;28;19932;-87
2023/08/22 00:15:58;;;;;;;;;;;17.20;68.50;;;;;;4154888;28;19920;-84
2023/08/22 00:18:23;;;;;;;;;;;17.10;68.70;;;;;;4171052;28;20032;-86
2023/08/22 00:20:43;;;;;;;;;;;17.10;69.50;;;;;;4157154;28;20004;-83
2023/08/22 00:23:04;;;;;;;;;;;17.10;69.10;;;;;;4159661;28;19968;-85
2023/08/22 00:25:24;;;;;;;;;;;17.10;69.00;;;;;;4157888;28;19921;-83
2023/08/22 00:27:45;;;;;;;;;;;17.10;69.30;;;;;;4157085;28;19917;-86
2023/08/22 00:30:06;;;;;;;;;;;17.10;68.60;;;;;;4168485;28;19920;-84
2023/08/22 00:32:07;;;;;;;;;;;17.10;68.90;;;;;;4160073;28;19928;-86
2023/08/22 00:34:08;;;;;;;;;;;17.20;68.60;;;;;;4163203;28;19917;-84
2023/08/22 00:36:13;;;;;;;;;;;17.10;68.30;;;;;;4156155;28;20059;-84
2023/08/22 00:38:34;;;;;;;;;;;17.10;68.00;;;;;;4161246;28;19917;-87
2023/08/22 00:40:54;;;;;;;;;;;17.10;68.10;;;;;;4153463;28;19972;-84
2023/08/22 00:43:15;;;;;;;;;;;17.10;68.00;;;;;;4159072;28;19924;-84
2023/08/22 00:45:36;;;;;;;;;;;17.10;68.20;;;;;;4156020;28;19972;-85
2023/08/22 00:47:59;;;;;;;;;;;17.10;68.20;;;;;;4157999;28;19921;-84
2023/08/22 00:50:20;;;;;;;;;;;17.10;68.10;;;;;;4159284;28;19933;-84
2023/08/22 00:52:40;;;;;;;;;;;17.10;67.90;;;;;;4161386;28;19917;-84
2023/08/22 00:55:01;;;;;;;;;;;17.10;68.50;;;;;;4164183;28;19914;-85
2023/08/22 00:57:21;;;;;;;;;;;17.10;68.80;;;;;;4159593;28;20065;-84
2023/08/22 00:59:42;;;;;;;;;;;17.00;68.50;;;;;;4155914;28;19948;-83
2023/08/22 01:02:03;;;;;;;;;;;17.00;68.80;;;;;;4157755;28;19921;-85
2023/08/22 01:04:03;;;;;;;;;;;17.10;68.50;;;;;;4160849;28;19944;-86
2023/08/22 01:06:11;;;;;;;;;;;17.10;68.30;;;;;;4156306;28;19914;-86
2023/08/22 01:08:19;;;;;;;;;;;17.00;68.20;;;;;;4157809;28;20301;-84
2023/08/22 01:10:42;;;;;;;;;;;17.10;68.20;;;;;;4159627;28;19917;-85
2023/08/22 01:13:17;;;;;;;;;;;17.00;67.90;;;;;;4180589;22;19913;-82
2023/08/22 01:15:28;;;;;;;;;;;17.00;67.90;;;;;;4168081;28;20331;-83
2023/08/22 01:17:48;;;;;;;;;;;17.00;68.60;;;;;;4171021;28;20012;-82
2023/08/22 01:20:12;;;;;;;;;;;17.10;68.30;;;;;;4172734;28;19967;-83
2023/08/22 01:22:12;;;;;;;;;;;17.10;68.20;;;;;;4173342;28;19959;-83
2023/08/22 01:24:14;;;;;;;;;;;17.10;68.60;;;;;;4180782;28;19912;-83
2023/08/22 01:26:34;;;;;;;;;;;17.00;68.80;;;;;;4180946;28;19947;-83
2023/08/22 01:28:42;;;;;;;;;;;17.00;68.40;;;;;;4168824;28;19955;-83
2023/08/22 01:31:09;;;;;;;;;;;17.00;68.30;;;;;;4184185;28;19956;-83
2023/08/22 01:33:36;;;;;;;;;;;17.00;68.50;;;;;;4185964;28;19928;-83
2023/08/22 01:35:56;;;;;;;;;;;17.00;68.50;;;;;;4182302;28;19989;-83
2023/08/22 01:38:18;;;;;;;;;;;17.00;68.20;;;;;;4180335;28;19931;-83
2023/08/22 01:40:39;;;;;;;;;;;17.10;68.20;;;;;;4180114;28;19966;-83
2023/08/22 01:43:00;;;;;;;;;;;17.00;68.30;;;;;;4185547;28;20428;-83
2023/08/22 01:45:20;;;;;;;;;;;17.00;68.30;;;;;;4185633;28;19968;-84
2023/08/22 01:47:44;;;;;;;;;;;17.00;68.40;;;;;;4187150;28;20320;-83
2023/08/22 01:50:04;;;;;;;;;;;17.00;68.30;;;;;;4177939;28;19912;-83
2023/08/22 01:52:25;;;;;;;;;;;17.00;68.30;;;;;;4177535;28;19931;-83
2023/08/22 01:54:48;;;;;;;;;;;17.00;68.30;;;;;;4181307;28;19912;-82
2023/08/22 01:57:09;;;;;;;;;;;17.00;68.30;;;;;;4181623;28;20420;-84
2023/08/22 01:59:29;;;;;;;;;;;17.00;69.50;;;;;;4180198;28;20006;-83
2023/08/22 02:01:46;;;;;;;;;;;16.90;68.90;;;;;;4182529;28;19913;-83
2023/08/22 02:04:06;;;;;;;;;;;16.90;68.70;;;;;;4182063;28;19921;-83
2023/08/22 02:06:27;;;;;;;;;;;16.90;68.60;;;;;;4182981;28;19916;-82
2023/08/22 02:08:47;;;;;;;;;;;17.00;68.60;;;;;;4184347;28;19927;-82
2023/08/22 02:11:08;;;;;;;;;;;17.00;68.40;;;;;;4183178;28;19913;-82
2023/08/22 02:13:29;;;;;;;;;;;16.90;68.30;;;;;;4179742;28;19920;-83
2023/08/22 02:15:49;;;;;;;;;;;17.00;68.40;;;;;;4181748;28;19920;-84
2023/08/22 02:18:10;;;;;;;;;;;16.90;68.40;;;;;;4180024;28;19991;-82
2023/08/22 02:20:31;;;;;;;;;;;17.00;68.60;;;;;;4182474;28;20003;-83
2023/08/22 02:22:31;;;;;;;;;;;17.00;68.50;;;;;;4179636;28;19920;-82
2023/08/22 02:24:32;;;;;;;;;;;16.90;68.40;;;;;;4184602;28;20285;-82
2023/08/22 02:26:33;;;;;;;;;;;17.00;68.40;;;;;;4170206;28;19920;-82
2023/08/22 02:28:54;;;;;;;;;;;17.00;68.50;;;;;;4184229;28;20336;-83
2023/08/22 02:30:55;;;;;;;;;;;17.00;68.40;;;;;;4184669;28;19964;-82
2023/08/22 02:33:16;;;;;;;;;;;17.00;68.40;;;;;;4182893;28;19921;-83
2023/08/22 02:35:26;;;;;;;;;;;16.90;68.40;;;;;;4183451;28;19966;-82
2023/08/22 02:37:43;;;;;;;;;;;17.00;68.40;;;;;;4185443;28;19923;-83
2023/08/22 02:39:49;;;;;;;;;;;16.90;68.40;;;;;;4183759;28;19920;-83
2023/08/22 02:42:09;;;;;;;;;;;16.90;68.30;;;;;;4183286;28;20508;-83
2023/08/22 02:44:30;;;;;;;;;;;16.90;68.40;;;;;;4186180;28;20003;-82
2023/08/22 02:46:50;;;;;;;;;;;16.90;68.20;;;;;;4183652;28;19919;-83
2023/08/22 02:49:11;;;;;;;;;;;16.90;68.20;;;;;;4183281;28;20569;-85
2023/08/22 02:51:19;;;;;;;;;;;16.90;68.60;;;;;;4185036;28;20389;-83
2023/08/22 02:53:40;;;;;;;;;;;16.80;68.70;;;;;;4195255;28;20496;-82
2023/08/22 02:56:00;;;;;;;;;;;16.90;68.90;;;;;;4181369;28;20382;-83
2023/08/22 02:58:21;;;;;;;;;;;16.80;68.60;;;;;;4182804;28;20455;-83
2023/08/22 03:00:44;;;;;;;;;;;16.80;68.80;;;;;;4183609;28;20387;-82
2023/08/22 03:03:04;;;;;;;;;;;16.80;68.70;;;;;;4186875;28;20370;-82
2023/08/22 03:05:25;;;;;;;;;;;16.80;68.60;;;;;;4186550;28;20402;-83
2023/08/22 03:07:45;;;;;;;;;;;16.80;68.60;;;;;;4182496;28;20397;-82
2023/08/22 03:10:07;;;;;;;;;;;16.70;68.40;;;;;;4181761;28;20413;-83
2023/08/22 03:12:31;;;;;;;;;;;16.70;68.40;;;;;;4182684;28;20422;-83
2023/08/22 03:14:52;;;;;;;;;;;16.70;68.50;;;;;;4202302;28;20276;-82
2023/08/22 03:17:12;;;;;;;;;;;16.70;68.50;;;;;;4196696;28;20636;-83
2023/08/22 03:19:34;;;;;;;;;;;16.70;68.50;;;;;;4180711;28;20559;-83
2023/08/22 03:21:54;;;;;;;;;;;16.70;68.60;;;;;;4182118;28;20410;-82
2023/08/22 03:24:05;;;;;;;;;;;16.60;68.40;;;;;;4181623;28;19917;-83
2023/08/22 03:26:10;;;;;;;;;;;16.60;68.40;;;;;;4183955;28;20107;-82
2023/08/22 03:28:11;;;;;;;;;;;16.60;68.40;;;;;;4184908;28;19959;-83
2023/08/22 03:30:11;;;;;;;;;;;16.60;68.40;;;;;;4186260;28;19913;-83
2023/08/22 03:32:12;;;;;;;;;;;16.50;68.40;;;;;;4184604;28;19916;-83
2023/08/22 03:34:12;;;;;;;;;;;16.50;68.30;;;;;;4182745;28;19943;-83
2023/08/22 03:36:13;;;;;;;;;;;16.50;68.20;;;;;;4184567;28;20263;-84
2023/08/22 03:38:14;;;;;;;;;;;16.50;68.30;;;;;;4199675;28;19924;-83
2023/08/22 03:40:15;;;;;;;;;;;16.50;68.40;;;;;;4183678;28;19920;-83
2023/08/22 03:42:16;;;;;;;;;;;16.40;68.30;;;;;;4183190;28;19923;-84
2023/08/22 03:44:17;;;;;;;;;;;16.40;68.30;;;;;;4186706;28;19955;-83
2023/08/22 03:46:19;;;;;;;;;;;16.40;68.30;;;;;;4182114;28;19927;-83
2023/08/22 03:48:21;;;;;;;;;;;16.30;68.20;;;;;;4186658;28;19928;-83
2023/08/22 03:50:21;;;;;;;;;;;16.30;68.20;;;;;;4167633;28;22026;-83
2023/08/22 03:52:23;;;;;;;;;;;16.30;68.30;;;;;;4169140;28;19916;-84
2023/08/22 03:54:44;;;;;;;;;;;16.30;68.30;;;;;;4184176;28;20045;-83
2023/08/22 03:57:05;;;;;;;;;;;16.20;68.50;;;;;;4181600;28;20352;-83
2023/08/22 03:59:15;;;;;;;;;;;16.20;68.50;;;;;;4200622;28;20183;-83
2023/08/22 04:01:35;;;;;;;;;;;16.20;68.50;;;;;;4192466;28;19955;-83
2023/08/22 04:03:56;;;;;;;;;;;16.10;68.40;;;;;;4203364;28;19923;-83
2023/08/22 04:06:17;;;;;;;;;;;16.20;68.50;;;;;;4192028;28;20420;-83
2023/08/22 04:08:38;;;;;;;;;;;16.20;68.40;;;;;;4190467;28;20538;-83
2023/08/22 04:10:51;;;;;;;;;;;16.10;68.40;;;;;;4204159;28;19912;-83
2023/08/22 04:13:12;;;;;;;;;;;16.00;68.40;;;;;;4192658;28;20629;-83
2023/08/22 04:15:35;;;;;;;;;;;16.00;68.50;;;;;;4192517;28;20297;-83
2023/08/22 04:17:56;;;;;;;;;;;16.00;68.50;;;;;;4190141;28;20339;-83
2023/08/22 04:20:16;;;;;;;;;;;16.00;68.50;;;;;;4190064;28;20681;-84
2023/08/22 04:22:41;;;;;;;;;;;15.90;69.50;;;;;;4191847;28;20321;-84
2023/08/22 04:25:01;;;;;;;;;;;15.80;68.80;;;;;;4205048;28;19928;-84
2023/08/22 04:27:22;;;;;;;;;;;15.80;68.60;;;;;;4191334;28;19909;-84
2023/08/22 04:29:43;;;;;;;;;;;15.80;68.60;;;;;;4189572;28;20324;-84
2023/08/22 04:32:03;;;;;;;;;;;15.80;69.50;;;;;;4192978;28;19917;-84
2023/08/22 04:34:24;;;;;;;;;;;15.80;68.80;;;;;;4189138;28;21639;-84
2023/08/22 04:36:44;;;;;;;;;;;15.80;68.90;;;;;;4189971;28;20403;-84
2023/08/22 04:38:49;;;;;;;;;;;15.70;68.80;;;;;;4191332;28;19935;-83
2023/08/22 04:40:49;;;;;;;;;;;15.70;68.90;;;;;;4187318;28;19981;-84
2023/08/22 04:42:50;;;;;;;;;;;15.70;69.00;;;;;;4191685;28;19920;-84
2023/08/22 04:44:51;;;;;;;;;;;15.60;68.90;;;;;;4193060;28;20451;-83
2023/08/22 04:46:51;;;;;;;;;;;15.60;69.00;;;;;;4195696;28;19955;-83
2023/08/22 04:48:52;;;;;;;;;;;15.60;69.00;;;;;;4193171;28;19919;-84
2023/08/22 04:50:54;;;;;;;;;;;15.50;68.70;;;;;;4206733;28;20791;-83
2023/08/22 04:52:54;;;;;;;;;;;15.50;68.70;;;;;;4193759;28;19999;-84
2023/08/22 04:54:56;;;;;;;;;;;15.50;69.30;;;;;;4193440;28;20497;-83
2023/08/22 04:57:20;;;;;;;;;;;15.50;69.60;;;;;;4192617;28;20310;-84
2023/08/22 04:59:41;;;;;;;;;;;15.50;69.50;;;;;;4192340;28;19913;-84
2023/08/22 05:02:02;;;;;;;;;;;15.60;69.40;;;;;;4194536;28;19912;-84
2023/08/22 05:04:13;;;;;;;;;;;15.50;69.40;;;;;;4190357;28;20391;-84
2023/08/22 05:06:33;;;;;;;;;;;15.50;69.40;;;;;;4192070;28;20340;-83
2023/08/22 05:08:57;;;;;;;;;;;15.40;69.60;;;;;;4193943;28;20279;-85
2023/08/22 05:11:17;;;;;;;;;;;15.50;69.80;;;;;;4189043;28;19913;-84
2023/08/22 05:13:38;;;;;;;;;;;15.40;69.80;;;;;;4191996;28;19921;-84
2023/08/22 05:15:58;;;;;;;;;;;15.40;70.00;;;;;;4190322;28;19912;-84
2023/08/22 05:18:19;;;;;;;;;;;15.40;70.20;;;;;;4191384;28;19951;-84
2023/08/22 05:20:40;;;;;;;;;;;15.40;70.10;;;;;;4189482;28;19962;-83
2023/08/22 05:23:01;;;;;;;;;;;15.50;70.40;;;;;;4188837;28;20071;-84
2023/08/22 05:25:21;;;;;;;;;;;15.50;70.50;;;;;;4190634;28;19912;-83
2023/08/22 05:27:42;;;;;;;;;;;15.50;70.60;;;;;;4189995;28;19909;-84
2023/08/22 05:30:05;;;;;;;;;;;15.50;70.70;;;;;;4188525;28;19913;-84
2023/08/22 05:32:25;;;;;;;;;;;15.60;71.00;;;;;;4190119;28;19983;-83
2023/08/22 05:34:26;;;;;;;;;;;15.70;71.10;;;;;;4190492;28;19912;-84
2023/08/22 05:36:26;;;;;;;;;;;15.80;71.30;;;;;;4188432;28;19947;-83
2023/08/22 05:38:27;;;;;;;;;;;15.70;71.50;;;;;;4197254;28;19959;-84
2023/08/22 05:40:28;;;;;;;;;;;15.70;71.60;;;;;;4189188;28;20360;-83
2023/08/22 05:42:29;;;;;;;;;;;15.80;71.80;;;;;;4173845;28;19967;-83
2023/08/22 05:44:32;;;;;;;;;;;15.90;72.00;;;;;;4190148;28;19913;-83
2023/08/22 05:46:33;;;;;;;;;;;15.90;72.10;;;;;;4190007;28;19951;-84
2023/08/22 05:48:54;;;;;;;;;;;16.00;72.20;;;;;;4192115;28;20003;-83
2023/08/22 05:51:15;;;;;;;;;;;16.00;72.40;;;;;;4187986;28;19952;-84
2023/08/22 05:53:35;;;;;;;;;;;16.00;72.40;;;;;;4189267;28;19943;-84
2023/08/22 05:55:56;;;;;;;;;;;16.10;72.50;;;;;;4188802;28;19951;-83
2023/08/22 05:58:17;;;;;;;;;;;16.20;72.80;;;;;;4190116;28;19920;-84
2023/08/22 06:00:37;;;;;;;;;;;16.30;72.80;;;;;;4185824;28;19916;-83
2023/08/22 06:02:58;;;;;;;;;;;16.30;72.60;;;;;;4192033;28;19913;-84
2023/08/22 06:05:18;;;;;;;;;;;16.40;72.60;;;;;;4205961;28;19933;-83
2023/08/22 06:07:19;;;;;;;;;;;16.50;73.10;;;;;;4197646;28;19921;-83
2023/08/22 06:09:20;;;;;;;;;;;16.60;73.20;;;;;;4189996;28;20382;-83
2023/08/22 06:11:21;;;;;;;;;;;16.60;73.30;;;;;;4189319;28;19908;-83
2023/08/22 06:13:22;;;;;;;;;;;16.70;73.10;;;;;;4208384;28;20600;-83
2023/08/22 06:15:22;;;;;;;;;;;16.80;73.30;;;;;;4189739;28;19924;-84
2023/08/22 06:17:23;;;;;;;;;;;16.90;74.60;;;;;;4189207;28;20413;-85
2023/08/22 06:19:24;;;;;;;;;;;16.90;74.40;;;;;;4190417;28;20539;-84
2023/08/22 06:21:29;;;;;;;;;;;17.00;74.30;;;;;;4187537;28;19916;-83
2023/08/22 06:23:49;;;;;;;;;;;17.00;73.80;;;;;;4188498;28;19916;-84
2023/08/22 06:26:10;;;;;;;;;;;17.10;73.90;;;;;;4186293;28;20011;-84
2023/08/22 06:28:15;;;;;;;;;;;17.20;73.40;;;;;;4194051;28;20003;-84
2023/08/22 06:30:15;;;;;;;;;;;17.20;73.00;;;;;;4188163;28;19916;-84
2023/08/22 06:32:36;;;;;;;;;;;17.30;73.20;;;;;;4187976;28;19963;-84
2023/08/22 06:35:00;;;;;;;;;;;17.30;73.10;;;;;;4189166;28;19912;-84
2023/08/22 06:37:20;;;;;;;;;;;17.40;72.10;;;;;;4191003;28;20049;-83
2023/08/22 06:39:41;;;;;;;;;;;17.50;72.10;;;;;;4193250;28;20202;-84
2023/08/22 06:42:01;;;;;;;;;;;17.60;72.30;;;;;;4193626;28;19912;-85
2023/08/22 06:44:22;;;;;;;;;;;17.60;72.10;;;;;;4185884;28;19913;-84
2023/08/22 06:46:43;;;;;;;;;;;17.60;72.10;;;;;;4186079;28;19920;-84
2023/08/22 06:49:03;;;;;;;;;;;17.80;72.00;;;;;;4191099;28;20013;-83
2023/08/22 06:51:24;;;;;;;;;;;17.80;71.70;;;;;;4187765;28;19939;-83
2023/08/22 06:53:44;;;;;;;;;;;17.90;71.70;;;;;;4187033;28;20007;-84
2023/08/22 06:56:05;;;;;;;;;;;17.90;71.60;;;;;;4188590;28;19987;-84
2023/08/22 06:58:25;;;;;;;;;;;17.90;71.50;;;;;;4183979;28;19948;-83
2023/08/22 07:00:46;;;;;;;;;;;18.00;71.70;;;;;;4185858;28;19951;-83
2023/08/22 07:03:06;;;;;;;;;;;18.10;71.70;;;;;;4188480;28;20051;-84
2023/08/22 07:05:27;;;;;;;;;;;18.20;71.70;;;;;;4184038;28;19920;-83
2023/08/22 07:07:47;;;;;;;;;;;18.30;71.50;;;;;;4187310;28;20420;-83
2023/08/22 07:09:50;;;;;;;;;;;18.40;71.50;;;;;;4184363;28;20394;-83
2023/08/22 07:11:50;;;;;;;;;;;18.40;71.70;;;;;;4186625;28;19939;-83
2023/08/22 07:13:51;;;;;;;;;;;18.50;71.60;;;;;;4187204;28;19916;-83
2023/08/22 07:15:51;;;;;;;;;;;18.60;71.60;;;;;;4187518;28;20360;-82
2023/08/22 07:17:52;;;;;;;;;;;18.70;71.80;;;;;;4183953;28;20466;-84
2023/08/22 07:19:53;;;;;;;;;;;18.80;71.60;;;;;;4181430;28;19923;-83
2023/08/22 07:22:13;;;;;;;;;;;18.80;71.90;;;;;;4179493;28;19923;-83
2023/08/22 07:24:34;;;;;;;;;;;18.90;71.90;;;;;;4185272;28;19923;-82
2023/08/22 07:26:54;;;;;;;;;;;19.00;71.70;;;;;;4188119;28;19913;-83
2023/08/22 07:29:15;;;;;;;;;;;19.20;71.50;;;;;;4198437;28;20006;-84
2023/08/22 07:31:36;;;;;;;;;;;19.30;71.50;;;;;;4189125;28;19963;-82
2023/08/22 07:33:57;;;;;;;;;;;19.30;71.30;;;;;;4189914;28;19921;-85
2023/08/22 07:35:57;;;;;;;;;;;19.40;71.20;;;;;;4189145;28;20374;-83
2023/08/22 07:37:58;;;;;;;;;;;19.50;71.20;;;;;;4189789;28;19919;-82
2023/08/22 07:39:58;;;;;;;;;;;19.60;71.10;;;;;;4184151;28;19920;-83
2023/08/22 07:41:59;;;;;;;;;;;19.70;70.80;;;;;;4180419;28;19921;-83
2023/08/22 07:43:59;;;;;;;;;;;19.70;70.80;;;;;;4183648;28;20059;-84
2023/08/22 07:46:00;;;;;;;;;;;19.80;70.60;;;;;;4183707;28;19923;-83
2023/08/22 07:48:00;;;;;;;;;;;19.90;70.00;;;;;;4187449;28;20304;-83
2023/08/22 07:50:01;;;;;;;;;;;19.90;70.00;;;;;;4190124;28;19941;-83
2023/08/22 07:52:02;;;;;;;;;;;20.10;69.70;;;;;;4185896;28;20498;-83
2023/08/22 07:54:24;;;;;;;;;;;20.10;68.90;;;;;;4188365;28;19973;-83
2023/08/22 07:56:48;;;;;;;;;;;20.10;68.40;;;;;;4189197;28;19932;-84
2023/08/22 07:58:59;;;;;;;;;;;20.20;68.10;;;;;;4185490;28;19913;-83
2023/08/22 08:01:22;;;;;;;;;;;20.20;67.10;;;;;;4165449;28;19920;-83
2023/08/22 08:04:27;;;;;;;;;;;20.30;67.00;;;;;;4190846;28;19924;-83
2023/08/22 08:06:54;;;;;;;;;;;20.40;66.00;;;;;;4157002;28;19984;-84
2023/08/22 08:09:16;;;;;;;;;;;20.40;66.10;;;;;;4117839;28;19921;-84
2023/08/22 08:12:23;;;;;;;;;;;20.50;66.50;;;;;;4169982;28;19929;-84
2023/08/22 08:15:14;;;;;;;;;;;20.50;66.30;;;;;;4103193;28;19980;-83
2023/08/22 08:17:18;;;;;;;;;;;20.60;66.20;;;;;;4102905;28;20029;-83
2023/08/22 08:19:18;;;;;;;;;;;20.70;65.80;;;;;;4159192;28;19917;-84
2023/08/22 08:21:42;;;;;;;;;;;20.80;65.30;;;;;;4173383;28;19944;-84
2023/08/22 08:23:44;;;;;;;;;;;20.70;63.40;;;;;;4171108;28;19913;-83
2023/08/22 08:25:45;;;;;;;;;;;20.90;63.80;;;;;;4159818;28;19928;-83
2023/08/22 08:27:46;;;;;;;;;;;20.90;62.60;;;;;;4156248;28;19925;-84
2023/08/22 08:29:46;;;;;;;;;;;21.00;63.00;;;;;;4170071;28;20112;-84
2023/08/22 08:31:47;;;;;;;;;;;21.00;63.20;;;;;;4168349;28;20296;-83
2023/08/22 08:33:47;;;;;;;;;;;21.10;62.10;;;;;;4166031;28;19921;-84
2023/08/22 08:36:15;;;;;;;;;;;21.10;62.50;;;;;;4153695;28;19945;-84
2023/08/22 08:38:36;;;;;;;;;;;21.10;61.60;;;;;;4122825;28;20090;-82
2023/08/22 08:43:37;;;;;;;;;;;21.20;61.40;;;;;;4131665;28;19967;-84
2023/08/22 08:45:57;;;;;;;;;;;21.40;61.60;;;;;;4132478;28;19913;-83
2023/08/22 08:48:38;;;;;;;;;;;21.40;61.20;;;;;;4135503;28;19979;-84
2023/08/22 08:51:00;;;;;;;;;;;21.40;61.10;;;;;;4138402;28;19971;-83
2023/08/22 08:53:27;;;;;;;;;;;21.50;61.50;;;;;;4136371;28;19983;-83
2023/08/22 08:55:51;;;;;;;;;;;21.50;60.60;;;;;;4137073;28;19929;-84
2023/08/22 08:58:11;;;;;;;;;;;21.60;60.10;;;;;;4136259;28;19917;-84
2023/08/22 09:00:32;;;;;;;;;;;21.70;60.00;;;;;;4123334;28;19968;-84
2023/08/22 09:02:53;;;;;;;;;;;21.80;60.10;;;;;;4136305;28;19960;-84
2023/08/22 09:05:15;;;;;;;;;;;21.80;59.50;;;;;;4138775;28;19917;-84
2023/08/22 09:07:35;;;;;;;;;;;21.80;59.40;;;;;;4156454;28;19933;-86
2023/08/22 09:09:58;;;;;;;;;;;21.90;58.50;;;;;;4156689;28;19909;-84
2023/08/22 09:12:03;;;;;;;;;;;21.90;58.40;;;;;;4145007;28;20303;-84
2023/08/22 09:14:04;;;;;;;;;;;21.90;58.90;;;;;;4138279;28;19928;-82
2023/08/22 09:16:07;;;;;;;;;;;22.00;58.90;;;;;;4174383;28;19938;-83
2023/08/22 09:18:12;;;;;;;;;;;22.00;58.80;;;;;;4187560;28;20531;-83
2023/08/22 09:20:33;;;;;;;;;;;22.10;58.80;;;;;;4184941;28;19927;-84
2023/08/22 09:22:34;;;;;;;;;;;22.20;59.10;;;;;;4197912;28;19942;-83
2023/08/22 09:24:55;;;;;;;;;;;22.20;59.00;;;;;;4184364;28;19921;-84
2023/08/22 09:27:15;;;;;;;;;;;22.20;58.40;;;;;;4184089;28;19972;-85
2023/08/22 09:29:36;;;;;;;;;;;22.30;57.90;;;;;;4189006;28;19920;-85
2023/08/22 09:31:54;;;;;;;;;;;22.30;56.00;;;;;;4183802;28;19936;-83
2023/08/22 09:34:15;;;;;;;;;;;22.30;56.90;;;;;;4182242;28;19913;-84
2023/08/22 09:36:23;;;;;;;;;;;22.30;55.30;;;;;;4198077;28;20011;-84
2023/08/22 09:38:53;;;;;;;;;;;22.30;55.70;;;;;;4184428;28;19921;-84
2023/08/22 09:41:20;;;;;;;;;;;22.40;55.60;;;;;;4187088;28;19916;-84
2023/08/22 09:43:42;;;;;;;;;;;22.40;56.80;;;;;;4188560;28;19923;-83
2023/08/22 09:46:03;;;;;;;;;;;22.40;57.20;;;;;;4183756;28;19916;-84
2023/08/22 09:48:24;;;;;;;;;;;22.50;56.60;;;;;;4184390;28;19920;-85
2023/08/22 09:50:48;;;;;;;;;;;22.50;56.80;;;;;;4184023;28;19920;-84
2023/08/22 09:53:09;;;;;;;;;;;22.50;55.40;;;;;;4183246;28;19997;-83
2023/08/22 09:55:30;;;;;;;;;;;22.60;55.00;;;;;;4183692;28;19917;-85
2023/08/22 09:57:51;;;;;;;;;;;22.60;54.90;;;;;;4183431;28;19941;-83
2023/08/22 09:59:51;;;;;;;;;;;22.60;54.00;;;;;;4183791;28;20367;-84
2023/08/22 10:01:54;;;;;;;;;;;22.60;54.60;;;;;;4186856;28;20333;-84
2023/08/22 10:04:16;;;;;;;;;;;22.60;54.80;;;;;;4179667;28;19961;-84
2023/08/22 10:06:37;;;;;;;;;;;22.70;55.00;;;;;;4181621;28;20064;-84
2023/08/22 10:08:39;;;;;;;;;;;22.70;54.20;;;;;;4186000;28;19917;-86
2023/08/22 10:10:42;;;;;;;;;;;22.80;53.50;;;;;;4185926;28;19916;-84
2023/08/22 10:13:03;;;;;;;;;;;22.80;53.60;;;;;;4182435;28;19917;-84
2023/08/22 10:15:24;;;;;;;;;;;22.80;53.90;;;;;;4184715;28;19942;-83
2023/08/22 10:17:32;;;;;;;;;;;22.90;54.00;;;;;;4185303;28;20012;-84
2023/08/22 10:19:59;;;;;;;;;;;22.90;53.20;;;;;;4183670;28;19920;-86
2023/08/22 10:22:19;;;;;;;;;;;22.90;52.40;;;;;;4180635;28;19921;-84
2023/08/22 10:24:41;;;;;;;;;;;23.00;52.40;;;;;;4181075;28;20016;-84
2023/08/22 10:27:12;;;;;;;;;;;23.00;52.90;;;;;;4182048;28;19921;-84
2023/08/22 10:29:33;;;;;;;;;;;23.00;52.40;;;;;;4183015;28;19974;-84
2023/08/22 10:32:00;;;;;;;;;;;23.10;52.40;;;;;;4182815;28;19974;-84
2023/08/22 10:34:20;;;;;;;;;;;23.10;52.80;;;;;;4181906;28;19913;-83
2023/08/22 10:36:57;;;;;;;;;;;23.20;52.60;;;;;;4184479;28;20058;-84
2023/08/22 10:39:34;;;;;;;;;;;23.30;52.60;;;;;;4184172;28;20003;-83
2023/08/22 10:41:44;;;;;;;;;;;23.40;52.00;;;;;;4179040;28;19927;-84
2023/08/22 10:43:44;;;;;;;;;;;23.40;52.60;;;;;;4183045;28;19932;-83
2023/08/22 10:45:52;;;;;;;;;;;23.40;52.80;;;;;;4183538;28;20402;-83
2023/08/22 10:48:10;;;;;;;;;;;23.50;52.70;;;;;;4186804;28;19918;-83
2023/08/22 10:50:12;;;;;;;;;;;23.60;52.50;;;;;;4181280;28;19912;-83
2023/08/22 10:52:33;;;;;;;;;;;23.60;52.20;;;;;;4181444;28;19923;-84
2023/08/22 10:54:56;;;;;;;;;;;23.70;52.00;;;;;;4183111;28;19923;-84
2023/08/22 10:57:18;;;;;;;;;;;23.70;51.20;;;;;;4180859;28;19971;-84
2023/08/22 10:59:54;;;;;;;;;;;23.80;51.90;;;;;;4182692;28;20000;-83
2023/08/22 11:02:14;;;;;;;;;;;23.90;52.10;;;;;;4182798;28;19916;-84
2023/08/22 11:04:35;;;;;;;;;;;23.90;52.50;;;;;;4182910;28;19920;-84
2023/08/22 11:06:56;;;;;;;;;;;24.00;52.10;;;;;;4183861;28;19963;-85
2023/08/22 11:08:56;;;;;;;;;;;24.10;52.00;;;;;;4184941;28;19925;-84
2023/08/22 11:10:58;;;;;;;;;;;24.20;52.80;;;;;;4183707;28;19952;-84
2023/08/22 11:13:07;;;;;;;;;;;24.20;51.10;;;;;;4186884;28;20404;-85
2023/08/22 11:15:07;;;;;;;;;;;24.20;51.30;;;;;;4183907;28;19966;-84
2023/08/22 11:17:28;;;;;;;;;;;24.20;50.00;;;;;;4184973;28;19924;-85
2023/08/22 11:19:49;;;;;;;;;;;24.30;50.70;;;;;;4186313;28;19924;-85
2023/08/22 11:22:10;;;;;;;;;;;24.40;50.40;;;;;;4184303;28;19920;-86
2023/08/22 11:24:31;;;;;;;;;;;24.40;50.60;;;;;;4186599;28;19990;-86
2023/08/22 11:26:34;;;;;;;;;;;24.40;51.00;;;;;;4188556;28;19912;-84
2023/08/22 11:28:55;;;;;;;;;;;24.50;50.90;;;;;;4186254;28;19916;-85
2023/08/22 11:31:16;;;;;;;;;;;24.50;51.10;;;;;;4185371;28;19960;-86
2023/08/22 11:33:44;;;;;;;;;;;24.60;50.20;;;;;;4187450;28;19917;-85
2023/08/22 11:36:04;;;;;;;;;;;24.60;49.80;;;;;;4187182;28;19995;-85
2023/08/22 11:38:25;;;;;;;;;;;24.70;49.90;;;;;;4186038;28;19922;-85
2023/08/22 11:40:46;;;;;;;;;;;24.70;49.90;;;;;;4182279;28;19912;-85
2023/08/22 11:43:07;;;;;;;;;;;24.80;50.50;;;;;;4181948;28;19916;-86
2023/08/22 11:45:27;;;;;;;;;;;24.80;50.50;;;;;;4185303;28;19951;-85
2023/08/22 11:47:48;;;;;;;;;;;24.80;49.50;;;;;;4186674;28;19912;-85
2023/08/22 11:50:15;;;;;;;;;;;24.90;50.10;;;;;;4186463;28;19920;-84
2023/08/22 11:52:39;;;;;;;;;;;24.90;50.10;;;;;;4185726;28;20815;-85
2023/08/22 11:55:04;;;;;;;;;;;24.90;49.00;;;;;;4185607;28;19928;-84
2023/08/22 11:57:25;;;;;;;;;;;25.00;49.90;;;;;;4186409;28;19921;-86
2023/08/22 11:59:46;;;;;;;;;;;25.00;49.40;;;;;;4182403;28;19924;-84
2023/08/22 12:02:07;;;;;;;;;;;25.00;48.90;;;;;;4184820;28;20003;-85
2023/08/22 12:04:07;;;;;;;;;;;25.00;49.40;;;;;;4184691;28;19936;-85
2023/08/22 12:06:12;;;;;;;;;;;25.00;49.50;;;;;;4182544;28;20480;-86
2023/08/22 12:08:12;;;;;;;;;;;25.00;49.60;;;;;;4169403;28;19932;-85
2023/08/22 12:10:13;;;;;;;;;;;25.00;49.00;;;;;;4186075;28;19916;-85
2023/08/22 12:12:14;;;;;;;;;;;25.00;48.70;;;;;;4184655;28;20028;-86
2023/08/22 12:14:15;;;;;;;;;;;25.10;49.30;;;;;;4183857;28;19920;-85
2023/08/22 12:16:16;;;;;;;;;;;25.10;49.80;;;;;;4185973;28;19925;-86
2023/08/22 12:18:37;;;;;;;;;;;25.20;49.70;;;;;;4184974;28;19921;-86
2023/08/22 12:20:49;;;;;;;;;;;25.10;49.10;;;;;;4201224;28;19912;-86
2023/08/22 12:23:10;;;;;;;;;;;25.10;49.00;;;;;;4186134;28;20406;-85
2023/08/22 12:25:32;;;;;;;;;;;25.10;48.60;;;;;;4186338;28;20329;-85
2023/08/22 12:27:52;;;;;;;;;;;25.10;47.80;;;;;;4181462;28;19917;-86
2023/08/22 12:30:13;;;;;;;;;;;25.10;48.30;;;;;;4186951;28;20572;-86
2023/08/22 12:32:33;;;;;;;;;;;25.10;48.10;;;;;;4181313;28;19922;-84
2023/08/22 12:34:54;;;;;;;;;;;25.00;48.40;;;;;;4182638;28;19912;-86
2023/08/22 12:37:14;;;;;;;;;;;25.00;48.50;;;;;;4184302;28;20018;-85
2023/08/22 12:39:35;;;;;;;;;;;25.00;48.80;;;;;;4184786;28;19970;-84
2023/08/22 12:41:56;;;;;;;;;;;25.00;49.00;;;;;;4184072;28;19943;-85
2023/08/22 12:44:16;;;;;;;;;;;25.00;49.10;;;;;;4199287;28;19913;-85
2023/08/22 12:46:17;;;;;;;;;;;25.00;49.00;;;;;;4206033;28;19980;-83
2023/08/22 12:48:17;;;;;;;;;;;25.00;48.90;;;;;;4199105;28;19912;-85
2023/08/22 12:50:18;;;;;;;;;;;25.10;48.70;;;;;;4196170;28;19939;-85
2023/08/22 12:52:38;;;;;;;;;;;25.00;48.70;;;;;;4184645;28;19917;-85
2023/08/22 12:54:59;;;;;;;;;;;25.00;48.80;;;;;;4184750;28;19913;-85
2023/08/22 12:57:20;;;;;;;;;;;25.00;48.50;;;;;;4184544;28;19917;-84
2023/08/22 12:59:40;;;;;;;;;;;25.00;48.60;;;;;;4181564;28;19919;-86
2023/08/22 13:02:01;;;;;;;;;;;25.00;48.80;;;;;;4182769;28;19912;-84
2023/08/22 13:04:21;;;;;;;;;;;24.90;48.80;;;;;;4186488;28;19917;-85
2023/08/22 13:06:42;;;;;;;;;;;24.90;49.00;;;;;;4181384;28;20000;-84
2023/08/22 13:09:02;;;;;;;;;;;24.90;49.00;;;;;;4184427;28;20011;-84
2023/08/22 13:11:23;;;;;;;;;;;24.90;49.20;;;;;;4185531;28;19967;-84